sensor_id;sensor_type;location;lat;lon;timestamp;pressure;altitude;pressure_sealevel;temperature;humidity
12073;BME280;6098;49.004;8.372;2023-02-15T00:01:58;101902.09;;;1.68;100.00
12073;BME280;6098;49.004;8.372;2023-02-15T00:16:52;101888.27;;;1.73;100.00
12073;BME280;6098;49.004;8.372;2023-02-15T00:31:46;101885.02;;;1.85;100.00
12073;BME280;6098;49.004;8.372;2023-02-15T00:46:36;101879.53;;;1.93;100.00
12073;BME280;6098;49.004;8.372;2023-02-15T01:01:28;101882.02;;;1.87;100.00
12073;BME280;6098;49.004;8.372;2023-02-15T01:16:20;101881.41;;;2.00;100.00
12073;BME280;6098;49.004;8.372;2023-02-15T01:31:15;101870.30;;;1.89;100.00
12073;BME280;6098;49.004;8.372;2023-02-15T01:46:08;101869.33;;;2.06;100.00
12073;BME280;6098;49.004;8.372;2023-02-15T02:01:00;101843.00;;;1.97;100.00
12073;BME280;6098;49.004;8.372;2023-02-15T02:31:31;101823.94;;;2.02;100.00
12073;BME280;6098;49.004;8.372;2023-02-15T02:46:26;101818.46;;;1.89;100.00
12073;BME280;6098;49.004;8.372;2023-02-15T03:01:20;101807.75;;;1.99;100.00
12073;BME280;6098;49.004;8.372;2023-02-15T03:16:10;101791.14;;;1.98;100.00
12073;BME280;6098;49.004;8.372;2023-02-15T03:31:24;101807.63;;;1.93;100.00
12073;BME280;6098;49.004;8.372;2023-02-15T03:46:20;101807.19;;;1.92;100.00
12073;BME280;6098;49.004;8.372;2023-02-15T04:01:18;101800.97;;;1.87;100.00
12073;BME280;6098;49.004;8.372;2023-02-15T04:16:24;101805.44;;;1.92;100.00
12073;BME280;6098;49.004;8.372;2023-02-15T04:31:17;101794.90;;;1.88;100.00
12073;BME280;6098;49.004;8.372;2023-02-15T04:46:06;101796.63;;;1.88;100.00
12073;BME280;6098;49.004;8.372;2023-02-15T05:00:57;101794.41;;;1.86;100.00
12073;BME280;6098;49.004;8.372;2023-02-15T05:15:48;101788.09;;;1.75;100.00
12073;BME280;6098;49.004;8.372;2023-02-15T05:30:38;101782.03;;;1.76;100.00
12073;BME280;6098;49.004;8.372;2023-02-15T05:45:30;101787.56;;;1.69;100.00
12073;BME280;6098;49.004;8.372;2023-02-15T06:00:21;101805.46;;;1.71;100.00
12073;BME280;6098;49.004;8.372;2023-02-15T06:15:16;101816.28;;;1.68;100.00
12073;BME280;6098;49.004;8.372;2023-02-15T06:30:09;101823.98;;;1.62;100.00
12073;BME280;6098;49.004;8.372;2023-02-15T06:45:03;101837.68;;;1.50;100.00
12073;BME280;6098;49.004;8.372;2023-02-15T06:59:56;101851.69;;;1.34;100.00
12073;BME280;6098;49.004;8.372;2023-02-15T07:14:48;101840.55;;;1.41;100.00
12073;BME280;6098;49.004;8.372;2023-02-15T07:29:42;101853.80;;;1.50;100.00
12073;BME280;6098;49.004;8.372;2023-02-15T07:44:32;101836.95;;;1.57;100.00
12073;BME280;6098;49.004;8.372;2023-02-15T07:59:25;101840.33;;;1.72;100.00
12073;BME280;6098;49.004;8.372;2023-02-15T08:14:18;101834.81;;;1.58;100.00
12073;BME280;6098;49.004;8.372;2023-02-15T08:29:08;101819.63;;;1.61;100.00
12073;BME280;6098;49.004;8.372;2023-02-15T08:44:01;101819.45;;;1.73;100.00
12073;BME280;6098;49.004;8.372;2023-02-15T08:58:54;101796.08;;;1.82;99.95
12073;BME280;6098;49.004;8.372;2023-02-15T09:13:58;101790.78;;;1.79;100.00
12073;BME280;6098;49.004;8.372;2023-02-15T09:28:53;101791.20;;;1.99;99.74
12073;BME280;6098;49.004;8.372;2023-02-15T10:14:35;101791.36;;;2.33;97.28
12073;BME280;6098;49.004;8.372;2023-02-15T10:29:30;101781.34;;;2.61;96.30
12073;BME280;6098;49.004;8.372;2023-02-15T11:45:34;101710.23;;;3.25;92.23
12073;BME280;6098;49.004;8.372;2023-02-15T12:00:37;101683.91;;;3.52;90.75
12073;BME280;6098;49.004;8.372;2023-02-15T12:15:31;101673.73;;;3.85;88.20
12073;BME280;6098;49.004;8.372;2023-02-15T12:30:24;101667.45;;;4.15;86.60
12073;BME280;6098;49.004;8.372;2023-02-15T12:45:24;101647.61;;;4.58;83.74
12073;BME280;6098;49.004;8.372;2023-02-15T13:15:22;101612.39;;;5.22;80.93
12073;BME280;6098;49.004;8.372;2023-02-15T14:31:11;101554.55;;;6.32;75.85
12073;BME280;6098;49.004;8.372;2023-02-15T15:01:03;101565.11;;;6.21;76.37
12073;BME280;6098;49.004;8.372;2023-02-15T15:15:50;101548.91;;;6.04;77.38
12073;BME280;6098;49.004;8.372;2023-02-15T15:45:46;101536.65;;;5.93;79.62
12073;BME280;6098;49.004;8.372;2023-02-15T16:00:39;101542.34;;;5.74;80.48
12073;BME280;6098;49.004;8.372;2023-02-15T16:15:34;101556.36;;;5.51;81.82
12073;BME280;6098;49.004;8.372;2023-02-15T16:30:28;101540.98;;;5.24;82.92
12073;BME280;6098;49.004;8.372;2023-02-15T16:45:20;101558.02;;;4.95;84.36
12073;BME280;6098;49.004;8.372;2023-02-15T17:00:22;101572.80;;;4.67;85.76
12073;BME280;6098;49.004;8.372;2023-02-15T17:15:35;101563.06;;;4.39;86.69
12073;BME280;6098;49.004;8.372;2023-02-15T17:30:33;101568.18;;;4.18;87.49
12073;BME280;6098;49.004;8.372;2023-02-15T17:45:22;101566.33;;;4.03;87.89
12073;BME280;6098;49.004;8.372;2023-02-15T18:00:16;101560.50;;;3.84;88.60
12073;BME280;6098;49.004;8.372;2023-02-15T18:15:35;101571.33;;;3.72;89.19
12073;BME280;6098;49.004;8.372;2023-02-15T18:30:25;101556.36;;;3.59;89.55
12073;BME280;6098;49.004;8.372;2023-02-15T19:00:18;101553.94;;;3.30;89.96
12073;BME280;6098;49.004;8.372;2023-02-15T19:15:28;101560.44;;;3.23;90.89
12073;BME280;6098;49.004;8.372;2023-02-15T19:45:12;101536.92;;;2.87;90.82
12073;BME280;6098;49.004;8.372;2023-02-15T20:14:55;101546.24;;;2.29;93.55
12073;BME280;6098;49.004;8.372;2023-02-15T20:29:45;101566.09;;;1.84;94.46
12073;BME280;6098;49.004;8.372;2023-02-15T20:44:36;101588.20;;;1.53;96.49
12073;BME280;6098;49.004;8.372;2023-02-15T20:59:30;101582.16;;;1.30;97.63
12073;BME280;6098;49.004;8.372;2023-02-15T21:14:22;101580.89;;;1.33;98.93
12073;BME280;6098;49.004;8.372;2023-02-15T21:29:23;101583.93;;;1.31;99.88
12073;BME280;6098;49.004;8.372;2023-02-15T21:44:20;101590.22;;;1.42;100.00
12073;BME280;6098;49.004;8.372;2023-02-15T21:59:31;101584.94;;;1.41;100.00
12073;BME280;6098;49.004;8.372;2023-02-15T22:14:35;101566.25;;;1.43;100.00
12073;BME280;6098;49.004;8.372;2023-02-15T22:29:31;101591.67;;;1.52;100.00
12073;BME280;6098;49.004;8.372;2023-02-15T22:44:23;101592.09;;;1.51;100.00
12073;BME280;6098;49.004;8.372;2023-02-15T22:59:19;101588.14;;;1.48;100.00
12073;BME280;6098;49.004;8.372;2023-02-15T23:29:20;101582.70;;;1.35;100.00
12073;BME280;6098;49.004;8.372;2023-02-15T23:44:13;101569.19;;;1.35;100.00
12073;BME280;6098;49.004;8.372;2023-02-15T23:59:05;101575.72;;;1.35;100.00
